createdAt,value
2023-08-17T00:01:35.593Z,7.18
2023-08-17T00:04:02.286Z,7.90
2023-08-17T00:06:29.029Z,7.72
2023-08-17T00:08:55.755Z,7.65
2023-08-17T00:11:22.687Z,7.20
2023-08-17T00:13:49.490Z,8.05
2023-08-17T00:16:16.235Z,7.82
2023-08-17T00:18:43.032Z,7.68
2023-08-17T00:21:09.823Z,8.95
2023-08-17T00:23:36.713Z,8.68
2023-08-17T00:26:03.508Z,7.18
2023-08-17T00:28:30.118Z,8.38
2023-08-17T00:30:56.688Z,8.07
2023-08-17T00:33:23.357Z,8.90
2023-08-17T00:35:49.960Z,10.68
2023-08-17T00:38:16.674Z,10.23
2023-08-17T00:40:43.411Z,11.05
2023-08-17T00:43:10.404Z,12.23
2023-08-17T00:45:37.606Z,11.95
2023-08-17T00:48:08.809Z,11.88
2023-08-17T00:50:37.801Z,11.93
2023-08-17T00:53:05.165Z,13.15
2023-08-17T00:55:31.912Z,14.20
2023-08-17T00:57:59.273Z,13.07
2023-08-17T01:00:30.030Z,13.55
2023-08-17T01:02:57.120Z,15.80
2023-08-17T01:05:24.868Z,15.82
2023-08-17T01:07:51.538Z,14.15
2023-08-17T01:10:19.004Z,12.27
2023-08-17T01:12:56.002Z,14.03
2023-08-17T01:15:29.321Z,14.20
2023-08-17T01:18:01.943Z,13.60
2023-08-17T01:20:29.548Z,14.05
2023-08-17T01:22:59.166Z,13.13
2023-08-17T01:25:25.793Z,14.90
2023-08-17T01:27:56.303Z,14.00
2023-08-17T01:30:22.927Z,12.45
2023-08-17T01:32:59.217Z,11.68
2023-08-17T01:35:35.206Z,9.27
2023-08-17T01:38:08.050Z,10.02
2023-08-17T01:40:35.518Z,8.52
2023-08-17T01:43:03.569Z,10.20
2023-08-17T01:45:30.416Z,10.15
2023-08-17T01:47:57.242Z,11.27
2023-08-17T01:50:23.860Z,10.27
2023-08-17T01:52:52.292Z,10.60
2023-08-17T01:55:19.810Z,10.93
2023-08-17T01:57:46.373Z,11.00
2023-08-17T02:00:13.521Z,9.98
2023-08-17T02:02:40.262Z,10.45
2023-08-17T02:05:07.486Z,9.93
2023-08-17T02:07:34.148Z,10.02
2023-08-17T02:10:00.798Z,10.68
2023-08-17T02:12:27.417Z,10.05
2023-08-17T02:14:54.541Z,10.00
2023-08-17T02:17:22.638Z,10.18
2023-08-17T02:19:49.332Z,9.48
2023-08-17T02:22:16.302Z,9.43
2023-08-17T02:24:42.932Z,10.32
2023-08-17T02:27:10.521Z,9.00
2023-08-17T02:29:37.108Z,8.85
2023-08-17T02:32:03.821Z,9.25
2023-08-17T02:34:30.427Z,9.38
2023-08-17T02:36:57.035Z,8.88
2023-08-17T02:39:23.652Z,7.70
2023-08-17T02:41:50.646Z,8.18
2023-08-17T02:44:17.277Z,9.55
2023-08-17T02:46:43.887Z,7.70
2023-08-17T02:49:10.557Z,9.43
2023-08-17T02:51:37.128Z,9.82
2023-08-17T02:54:03.823Z,8.90
2023-08-17T02:56:30.414Z,9.00
2023-08-17T02:58:57.006Z,9.75
2023-08-17T03:01:23.599Z,9.73
2023-08-17T03:03:50.188Z,8.57
2023-08-17T03:06:16.745Z,8.45
2023-08-17T03:08:43.370Z,10.75
2023-08-17T05:02:32.139Z,9.48
2023-08-17T05:04:58.788Z,10.13
2023-08-17T05:07:25.731Z,9.75
2023-08-17T05:09:52.580Z,11.13
2023-08-17T05:12:19.147Z,10.90
2023-08-17T05:14:45.715Z,8.40
2023-08-17T05:17:12.394Z,10.02
2023-08-17T05:19:40.682Z,10.70
2023-08-17T05:22:11.808Z,10.45
2023-08-17T05:24:38.868Z,9.65
2023-08-17T05:27:06.091Z,9.07
2023-08-17T05:29:35.755Z,9.82
2023-08-17T05:32:02.321Z,9.30
2023-08-17T05:34:28.945Z,8.93
2023-08-17T05:36:55.574Z,7.30
2023-08-17T05:39:22.165Z,7.78
2023-08-17T05:41:48.817Z,9.13
2023-08-17T05:44:16.295Z,9.85
2023-08-17T05:46:42.990Z,8.35
2023-08-17T05:49:09.697Z,9.73
2023-08-17T05:51:36.315Z,8.68
2023-08-17T05:54:03.028Z,9.80
2023-08-17T05:56:29.668Z,9.73
2023-08-17T05:58:56.301Z,8.98
2023-08-17T06:01:23.254Z,9.38
2023-08-17T06:03:50.896Z,9.10
2023-08-17T06:06:17.589Z,9.32
2023-08-17T06:08:44.196Z,9.07
2023-08-17T06:11:10.786Z,9.52
2023-08-17T06:13:37.681Z,9.63
2023-08-17T06:16:04.449Z,9.13
2023-08-17T06:18:31.058Z,9.60
2023-08-17T06:20:57.667Z,9.88
2023-08-17T06:23:25.106Z,9.40
2023-08-17T06:25:51.708Z,9.18
2023-08-17T06:28:18.364Z,10.35
2023-08-17T06:30:45.057Z,10.80
2023-08-17T06:33:11.777Z,11.55
2023-08-17T06:35:38.389Z,11.57
2023-08-17T06:38:04.962Z,12.25
2023-08-17T06:40:31.512Z,10.50
2023-08-17T06:42:58.056Z,11.10
2023-08-17T06:45:24.683Z,11.18
2023-08-17T06:47:51.498Z,12.05
2023-08-17T06:50:18.225Z,11.68
2023-08-17T06:52:44.797Z,11.57
2023-08-17T06:55:12.557Z,12.80
2023-08-17T06:57:39.244Z,10.32
2023-08-17T07:00:06.801Z,10.47
2023-08-17T07:02:50.660Z,10.32
2023-08-17T07:05:22.052Z,9.38
2023-08-17T07:07:49.243Z,10.10
2023-08-17T07:12:42.485Z,11.05
2023-08-17T07:15:10.701Z,11.68
2023-08-17T07:17:40.762Z,10.85
2023-08-17T07:20:16.897Z,9.60
2023-08-17T07:22:48.028Z,10.80
2023-08-17T07:25:16.535Z,9.43
2023-08-17T07:27:44.362Z,9.82
2023-08-17T07:30:12.976Z,9.52
2023-08-17T07:32:39.605Z,10.32
2023-08-17T07:35:09.730Z,11.52
2023-08-17T07:37:37.085Z,10.77
2023-08-17T07:40:06.825Z,10.13
2023-08-17T07:42:33.535Z,9.75
2023-08-17T07:45:00.411Z,9.02
2023-08-17T07:47:27.382Z,7.85
2023-08-17T07:49:54.380Z,9.85
2023-08-17T07:52:21.128Z,9.02
2023-08-17T07:54:47.768Z,8.43
2023-08-17T07:57:14.494Z,8.50
2023-08-17T07:59:41.320Z,8.65
2023-08-17T08:02:11.107Z,8.82
2023-08-17T08:04:37.715Z,8.45
2023-08-17T08:07:35.217Z,8.55
2023-08-17T08:10:03.382Z,8.88
2023-08-17T08:12:30.096Z,9.35
2023-08-17T08:14:56.757Z,8.73
2023-08-17T08:17:23.593Z,7.88
2023-08-17T08:19:54.826Z,5.93
2023-08-17T08:22:21.405Z,6.93
2023-08-17T08:24:48.000Z,7.30
2023-08-17T08:27:14.570Z,7.07
2023-08-17T08:29:43.016Z,6.23
2023-08-17T08:32:09.665Z,7.25
2023-08-17T08:34:36.286Z,7.10
2023-08-17T08:37:02.924Z,6.93
2023-08-17T08:39:29.591Z,7.50
2023-08-17T08:41:56.878Z,7.00
2023-08-17T08:44:24.070Z,6.63
2023-08-17T08:46:50.842Z,6.07
2023-08-17T08:49:23.682Z,6.30
2023-08-17T08:51:52.619Z,6.15
2023-08-17T08:54:26.297Z,6.35
2023-08-17T08:56:58.566Z,6.28
2023-08-17T08:59:28.172Z,6.32
2023-08-17T09:01:57.502Z,6.55
2023-08-17T09:04:25.222Z,6.60
2023-08-17T09:06:52.460Z,6.15
2023-08-17T09:09:19.697Z,6.15
2023-08-17T09:11:46.383Z,6.35
2023-08-17T09:14:12.998Z,7.10
2023-08-17T09:16:40.110Z,6.97
2023-08-17T09:19:07.482Z,6.50
2023-08-17T09:21:34.290Z,6.20
2023-08-17T09:24:02.192Z,6.43
2023-08-17T09:26:35.624Z,5.88
2023-08-17T09:29:17.016Z,7.65
2023-08-17T09:31:44.217Z,6.70
2023-08-17T09:34:12.464Z,6.45
2023-08-17T09:36:40.861Z,6.88
2023-08-17T09:39:07.471Z,6.75
2023-08-17T09:41:43.788Z,7.27
2023-08-17T09:44:10.732Z,7.32
2023-08-17T09:46:37.492Z,7.57
2023-08-17T09:49:08.070Z,6.55
2023-08-17T09:51:35.004Z,6.57
2023-08-17T09:54:02.204Z,6.40
2023-08-17T09:56:30.694Z,6.93
2023-08-17T10:01:25.191Z,7.47
2023-08-17T10:03:54.325Z,7.38
2023-08-17T10:06:27.467Z,7.93
2023-08-17T10:08:57.871Z,6.78
2023-08-17T10:11:27.330Z,7.15
2023-08-17T10:14:12.118Z,5.93
2023-08-17T10:16:55.161Z,6.40
2023-08-17T10:19:44.321Z,6.75
2023-08-17T10:22:19.824Z,6.60
2023-08-17T10:24:48.471Z,6.85
2023-08-17T10:27:15.616Z,7.32
2023-08-17T10:29:44.485Z,6.60
2023-08-17T10:32:16.733Z,6.82
2023-08-17T10:34:44.702Z,6.88
2023-08-17T10:37:12.778Z,7.30
2023-08-17T10:39:46.665Z,7.63
2023-08-17T10:42:20.881Z,6.95
2023-08-17T10:44:49.541Z,6.70
2023-08-17T10:47:36.552Z,6.75
2023-08-17T10:50:23.926Z,6.65
2023-08-17T10:52:51.912Z,6.88
2023-08-17T10:55:21.029Z,6.40
2023-08-17T10:57:47.624Z,7.38
2023-08-17T11:00:28.570Z,8.00
2023-08-17T11:03:01.953Z,6.25
2023-08-17T11:05:54.961Z,6.47
2023-08-17T11:08:30.288Z,7.40
2023-08-17T11:11:04.884Z,7.95
2023-08-17T11:13:34.183Z,6.47
2023-08-17T11:16:04.083Z,7.65
2023-08-17T11:18:35.142Z,7.10
2023-08-17T11:21:04.855Z,7.30
2023-08-17T11:23:33.006Z,7.40
2023-08-17T11:26:00.908Z,7.32
2023-08-17T11:28:28.067Z,7.05
2023-08-17T11:31:02.684Z,7.72
2023-08-17T11:33:31.649Z,7.18
2023-08-17T11:38:36.034Z,7.05
2023-08-17T11:41:07.580Z,7.57
2023-08-17T11:43:34.463Z,7.28
2023-08-17T11:46:02.809Z,8.10
2023-08-17T11:48:36.378Z,7.68
2023-08-17T11:51:04.998Z,7.65
2023-08-17T11:53:40.884Z,7.53
2023-08-17T11:56:10.645Z,8.35
2023-08-17T11:58:45.392Z,6.85
2023-08-17T12:01:14.193Z,6.90
2023-08-17T12:03:44.411Z,6.43
2023-08-17T12:06:14.747Z,6.90
2023-08-17T12:08:48.933Z,7.60
2023-08-17T12:11:19.432Z,7.82
2023-08-17T12:13:53.929Z,7.10
2023-08-17T12:16:21.922Z,7.57
2023-08-17T12:18:53.395Z,9.02
2023-08-17T12:21:26.040Z,8.15
2023-08-17T12:23:53.062Z,7.18
2023-08-17T12:26:21.037Z,7.25
2023-08-17T12:28:47.619Z,8.55
2023-08-17T12:31:14.301Z,7.43
2023-08-17T12:33:40.906Z,7.00
2023-08-17T12:36:08.022Z,7.32
2023-08-17T12:38:34.798Z,7.75
2023-08-17T12:41:06.823Z,7.57
2023-08-17T12:43:33.971Z,7.35
2023-08-17T12:46:00.605Z,7.88
2023-08-17T12:48:27.171Z,7.32
2023-08-17T12:50:53.755Z,7.38
2023-08-17T12:53:20.339Z,7.05
2023-08-17T12:55:47.221Z,7.45
2023-08-17T12:58:13.802Z,7.63
2023-08-17T13:00:40.469Z,7.82
2023-08-17T13:03:07.873Z,6.60
2023-08-17T13:05:35.957Z,7.28
2023-08-17T13:08:02.586Z,7.97
2023-08-17T13:10:30.235Z,7.18
2023-08-17T13:15:27.478Z,6.45
2023-08-17T13:17:54.118Z,7.50
2023-08-17T13:20:20.701Z,7.43
2023-08-17T13:22:48.029Z,7.00
2023-08-17T13:25:14.605Z,6.90
2023-08-17T13:27:41.310Z,7.95
2023-08-17T13:30:08.661Z,7.63
2023-08-17T13:32:35.366Z,7.43
2023-08-17T13:35:05.363Z,7.75
2023-08-17T13:37:32.282Z,7.55
2023-08-17T13:39:59.709Z,7.37
2023-08-17T13:42:26.621Z,7.45
2023-08-17T13:44:53.662Z,7.40
2023-08-17T13:47:20.371Z,7.67
2023-08-17T13:49:46.999Z,6.90
2023-08-17T13:52:13.690Z,7.00
2023-08-17T13:54:40.568Z,8.05
2023-08-17T13:57:07.342Z,7.43
2023-08-17T13:59:35.074Z,6.80
2023-08-17T14:04:28.220Z,8.07
2023-08-17T14:06:56.447Z,7.40
2023-08-17T14:09:23.276Z,7.03
2023-08-17T14:11:49.960Z,8.03
2023-08-17T14:14:16.629Z,7.90
2023-08-17T14:16:43.898Z,6.65
2023-08-17T14:19:10.699Z,7.03
2023-08-17T14:21:37.245Z,6.87
2023-08-17T14:24:04.170Z,7.72
2023-08-17T14:26:32.065Z,7.37
2023-08-17T14:28:59.932Z,8.07
2023-08-17T14:31:26.582Z,7.35
2023-08-17T14:33:53.366Z,7.70
2023-08-17T14:36:20.972Z,8.23
2023-08-17T14:38:48.378Z,7.32
2023-08-17T14:41:15.054Z,7.38
2023-08-17T14:43:41.849Z,8.63
2023-08-17T14:46:14.321Z,7.87
2023-08-17T14:48:41.574Z,8.45
2023-08-17T14:51:08.201Z,7.38
2023-08-17T14:53:39.359Z,6.95
2023-08-17T14:56:06.312Z,7.28
2023-08-17T14:58:32.982Z,7.15
2023-08-17T15:00:59.859Z,7.05
2023-08-17T15:03:26.681Z,7.73
2023-08-17T15:05:53.472Z,7.70
2023-08-17T15:08:20.386Z,7.43
2023-08-17T15:10:49.203Z,7.63
2023-08-17T15:13:16.413Z,7.22
2023-08-17T15:15:44.241Z,7.70
2023-08-17T15:18:11.561Z,7.15
2023-08-17T15:20:38.391Z,7.00
2023-08-17T15:23:05.130Z,8.27
2023-08-17T15:25:31.806Z,7.30
2023-08-17T15:27:58.390Z,7.82
2023-08-17T15:30:25.003Z,8.73
2023-08-17T15:32:51.634Z,7.97
2023-08-17T15:35:18.251Z,7.47
2023-08-17T15:37:44.821Z,8.65
2023-08-17T15:40:12.765Z,7.85
2023-08-17T15:42:39.432Z,7.85
2023-08-17T15:45:06.467Z,7.20
2023-08-17T15:47:33.823Z,7.95
2023-08-17T15:50:01.156Z,8.23
2023-08-17T15:52:27.747Z,8.25
2023-08-17T15:54:54.374Z,7.32
2023-08-17T15:57:20.992Z,8.55
2023-08-17T15:59:51.171Z,7.40
2023-08-17T16:02:18.598Z,7.55
2023-08-17T16:04:45.352Z,8.30
2023-08-17T16:07:11.998Z,7.57
2023-08-17T16:09:39.460Z,7.95
2023-08-17T16:12:06.443Z,8.00
2023-08-17T16:14:34.245Z,7.68
2023-08-17T16:17:03.696Z,6.90
2023-08-17T16:19:30.320Z,7.90
2023-08-17T16:21:56.969Z,8.18
2023-08-17T16:26:53.180Z,7.20
2023-08-17T16:29:19.831Z,7.57
2023-08-17T16:32:09.135Z,7.50
2023-08-17T16:34:36.933Z,7.63
2023-08-17T16:37:03.750Z,7.97
2023-08-17T16:39:30.352Z,8.67
2023-08-17T16:41:59.803Z,8.15
2023-08-17T16:44:28.238Z,8.23
2023-08-17T16:46:55.511Z,8.43
2023-08-17T16:49:22.148Z,7.05
2023-08-17T16:51:48.714Z,7.53
2023-08-17T16:54:15.337Z,7.63
2023-08-17T16:56:44.572Z,7.57
2023-08-17T16:59:12.180Z,7.15
2023-08-17T17:01:39.500Z,6.82
2023-08-17T17:04:07.049Z,8.00
2023-08-17T17:06:33.701Z,8.07
2023-08-17T17:09:00.513Z,8.63
2023-08-17T17:11:27.814Z,8.30
2023-08-17T17:13:56.166Z,8.75
2023-08-17T17:16:28.003Z,8.10
2023-08-17T17:18:54.670Z,7.28
2023-08-17T17:21:21.448Z,8.15
2023-08-17T17:23:48.065Z,8.07
2023-08-17T17:26:23.877Z,8.38
2023-08-17T17:28:51.022Z,7.88
2023-08-17T17:31:17.834Z,6.82
2023-08-17T17:33:44.822Z,7.13
2023-08-17T17:36:11.551Z,7.53
2023-08-17T17:38:48.455Z,6.85
2023-08-17T17:41:16.727Z,8.03
2023-08-17T17:43:43.772Z,7.93
2023-08-17T17:46:13.407Z,9.17
2023-08-17T17:48:40.272Z,8.55
2023-08-17T17:51:07.171Z,8.90
2023-08-17T17:53:34.242Z,7.95
2023-08-17T17:56:04.391Z,7.47
2023-08-17T17:58:33.377Z,8.20
2023-08-17T18:01:00.129Z,7.72
2023-08-17T18:03:28.959Z,7.88
2023-08-17T18:05:55.957Z,7.57
2023-08-17T18:08:22.684Z,7.93
2023-08-17T18:10:49.653Z,8.75
2023-08-17T18:13:16.302Z,9.05
2023-08-17T18:15:43.598Z,7.97
2023-08-17T18:18:10.471Z,9.00
2023-08-17T18:20:37.632Z,9.23
2023-08-17T18:23:04.405Z,8.13
2023-08-17T18:25:31.058Z,8.98
2023-08-17T18:27:57.693Z,7.85
2023-08-17T18:30:24.332Z,8.63
2023-08-17T18:32:51.080Z,8.30
2023-08-17T18:35:18.914Z,9.00
2023-08-17T18:37:46.956Z,8.70
2023-08-17T18:40:13.691Z,9.38
2023-08-17T18:42:40.566Z,8.32
2023-08-17T18:45:08.117Z,8.85
2023-08-17T18:47:34.903Z,9.02
2023-08-17T18:50:02.023Z,8.90
2023-08-17T18:52:32.842Z,7.80
2023-08-17T18:55:04.298Z,8.93
2023-08-17T18:57:33.753Z,8.82
2023-08-17T19:00:02.594Z,8.43
2023-08-17T19:02:29.362Z,9.57
2023-08-17T19:04:57.420Z,9.23
2023-08-17T19:07:29.361Z,8.80
2023-08-17T19:09:56.288Z,9.05
2023-08-17T19:12:22.977Z,9.38
2023-08-17T19:14:49.573Z,9.63
2023-08-17T19:17:16.555Z,8.32
2023-08-17T19:19:43.346Z,9.80
2023-08-17T19:22:10.504Z,9.45
2023-08-17T19:24:38.566Z,10.87
2023-08-17T19:29:31.723Z,9.77
2023-08-17T19:31:58.320Z,9.45
2023-08-17T19:34:24.973Z,9.57
2023-08-17T19:36:51.618Z,8.93
2023-08-17T19:39:19.843Z,10.07
2023-08-17T19:41:48.540Z,9.82
2023-08-17T19:44:15.639Z,10.02
2023-08-17T19:46:42.341Z,11.35
2023-08-17T19:49:09.336Z,11.25
2023-08-17T19:51:36.010Z,11.38
2023-08-17T19:54:02.619Z,10.90
2023-08-17T19:56:29.317Z,10.48
2023-08-17T19:58:55.902Z,10.27
2023-08-17T20:01:23.953Z,11.30
2023-08-17T20:08:46.176Z,10.65
2023-08-17T20:11:13.477Z,10.57
2023-08-17T20:13:40.099Z,9.73
2023-08-17T20:16:06.811Z,11.00
2023-08-17T20:18:33.766Z,11.57
2023-08-17T20:21:03.175Z,10.65
2023-08-17T20:23:30.360Z,10.30
2023-08-17T20:25:57.720Z,10.80
2023-08-17T20:28:25.190Z,9.77
2023-08-17T20:30:57.520Z,11.93
2023-08-17T20:33:24.977Z,11.20
2023-08-17T20:35:53.727Z,11.82
2023-08-17T20:38:21.855Z,11.13
2023-08-17T20:43:15.476Z,11.20
2023-08-17T20:45:43.511Z,10.77
2023-08-17T20:48:10.905Z,11.75
2023-08-17T20:50:39.458Z,11.37
2023-08-17T20:53:07.128Z,10.13
2023-08-17T20:55:42.624Z,9.68
2023-08-17T20:58:10.124Z,11.13
2023-08-17T21:00:36.943Z,11.00
2023-08-17T21:03:06.830Z,9.15
2023-08-17T21:05:33.930Z,11.05
2023-08-17T21:08:01.202Z,10.60
2023-08-17T21:10:28.545Z,10.57
2023-08-17T21:12:55.207Z,11.25
2023-08-17T21:15:21.850Z,11.48
2023-08-17T21:17:48.532Z,11.35
2023-08-17T21:20:15.457Z,10.52
2023-08-17T21:22:51.983Z,10.82
2023-08-17T21:25:19.504Z,10.43
2023-08-17T21:27:46.280Z,11.10
2023-08-17T21:30:13.592Z,10.20
2023-08-17T21:32:40.964Z,10.57
2023-08-17T21:35:07.891Z,9.43
2023-08-17T21:37:34.592Z,10.50
2023-08-17T21:40:02.314Z,11.10
2023-08-17T21:42:28.929Z,9.93
2023-08-17T21:44:56.414Z,10.55
2023-08-17T21:47:26.136Z,11.05
2023-08-17T21:49:53.078Z,10.95
2023-08-17T21:52:20.867Z,10.50
2023-08-17T21:54:50.725Z,10.57
2023-08-17T21:57:18.219Z,10.18
2023-08-17T21:59:45.249Z,11.73
2023-08-17T22:02:12.022Z,10.27
2023-08-17T22:04:38.636Z,10.77
2023-08-17T22:07:05.265Z,11.77
2023-08-17T22:09:34.417Z,11.23
2023-08-17T22:12:01.398Z,10.25
2023-08-17T22:14:30.287Z,10.07
2023-08-17T22:16:57.644Z,11.25
2023-08-17T22:19:24.494Z,11.50
2023-08-17T22:21:51.222Z,10.70
2023-08-17T22:24:17.855Z,11.70
2023-08-17T22:26:44.623Z,10.60
2023-08-17T22:29:12.498Z,10.52
2023-08-17T22:31:43.346Z,12.00
2023-08-17T22:34:13.995Z,11.75
2023-08-17T22:36:40.682Z,11.05
2023-08-17T22:39:07.271Z,11.65
2023-08-17T22:41:34.117Z,12.02
2023-08-17T22:44:00.794Z,11.00
2023-08-17T22:46:27.604Z,11.55
2023-08-17T22:48:54.272Z,11.00
2023-08-17T22:51:20.932Z,11.93
2023-08-17T22:53:47.587Z,11.95
2023-08-17T22:56:14.230Z,10.40
2023-08-17T22:58:41.062Z,10.68
2023-08-17T23:01:08.772Z,10.98
2023-08-17T23:03:35.510Z,11.07
2023-08-17T23:06:02.828Z,9.48
2023-08-17T23:08:30.237Z,9.77
2023-08-17T23:11:00.915Z,8.65
2023-08-17T23:13:27.935Z,9.55
2023-08-17T23:15:55.565Z,9.65
2023-08-17T23:18:22.258Z,9.52
2023-08-17T23:20:48.989Z,10.43
2023-08-17T23:23:15.953Z,10.23
2023-08-17T23:25:43.630Z,12.73
2023-08-17T23:28:10.896Z,10.85
2023-08-17T23:30:40.206Z,10.80
2023-08-17T23:33:07.522Z,11.70
2023-08-17T23:35:35.214Z,11.30
2023-08-17T23:38:02.142Z,12.50
2023-08-17T23:40:28.850Z,10.40
2023-08-17T23:42:55.462Z,10.95
2023-08-17T23:45:22.390Z,10.95
2023-08-17T23:47:49.024Z,11.07
2023-08-17T23:50:15.767Z,11.88
2023-08-17T23:52:43.236Z,10.07
2023-08-17T23:55:09.935Z,11.73
2023-08-17T23:57:36.574Z,11.13
